createdAt,value
2017-05-11T00:00:21.364Z,10.61
2017-05-11T00:00:47.447Z,10.56
2017-05-11T00:01:13.536Z,10.54
2017-05-11T00:01:39.633Z,10.38
2017-05-11T00:02:05.733Z,10.42
2017-05-11T00:02:31.852Z,10.44
2017-05-11T00:02:57.955Z,10.44
2017-05-11T00:03:24.053Z,10.42
2017-05-11T00:03:50.243Z,10.38
2017-05-11T00:04:16.323Z,10.34
2017-05-11T00:04:42.436Z,10.37
2017-05-11T00:05:08.531Z,10.38
2017-05-11T00:05:34.611Z,10.26
2017-05-11T00:06:00.703Z,10.3
2017-05-11T00:06:26.781Z,10.22
2017-05-11T00:06:52.878Z,10.23
2017-05-11T00:07:18.969Z,10.28
2017-05-11T00:07:45.071Z,10.26
2017-05-11T00:08:11.144Z,10.28
2017-05-11T00:08:37.262Z,10.28
2017-05-11T00:09:03.395Z,10.26
2017-05-11T00:09:29.526Z,10.28
2017-05-11T00:09:55.627Z,10.26
2017-05-11T00:10:21.705Z,10.3
2017-05-11T00:10:47.800Z,10.31
2017-05-11T00:11:13.880Z,10.31
2017-05-11T00:11:39.976Z,10.28
2017-05-11T00:12:06.064Z,10.23
2017-05-11T00:12:32.173Z,10.19
2017-05-11T00:12:58.247Z,10.2
2017-05-11T00:13:24.360Z,10.15
2017-05-11T00:13:50.450Z,10.26
2017-05-11T00:14:16.523Z,10.15
2017-05-11T00:14:42.627Z,10.2
2017-05-11T00:15:08.703Z,10.2
2017-05-11T00:15:34.819Z,10.13
2017-05-11T00:16:00.927Z,10.16
2017-05-11T00:16:27.004Z,10.15
2017-05-11T00:16:53.087Z,10.17
2017-05-11T00:17:19.178Z,10.13
2017-05-11T00:17:45.289Z,10.19
2017-05-11T00:18:11.397Z,10.17
2017-05-11T00:18:37.535Z,10.2
2017-05-11T00:19:03.655Z,10.19
2017-05-11T00:19:29.757Z,10.22
2017-05-11T00:19:55.897Z,10.22
2017-05-11T00:20:21.998Z,10.22
2017-05-11T00:20:48.110Z,10.26
2017-05-11T00:21:14.204Z,10.19
2017-05-11T00:21:40.307Z,10.17
2017-05-11T00:22:06.446Z,10.16
2017-05-11T00:22:32.542Z,10.13
2017-05-11T00:22:58.645Z,10.2
2017-05-11T00:23:24.784Z,10.17
2017-05-11T00:23:50.861Z,10.13
2017-05-11T00:24:16.975Z,10.1
2017-05-11T00:24:43.115Z,9.94
2017-05-11T00:25:09.198Z,9.95
2017-05-11T00:25:35.315Z,9.94
2017-05-11T00:26:01.433Z,9.99
2017-05-11T00:26:27.513Z,9.94
2017-05-11T00:26:53.610Z,9.91
2017-05-11T00:27:19.743Z,9.98
2017-05-11T00:27:45.858Z,9.94
2017-05-11T00:28:11.975Z,9.99
2017-05-11T00:28:38.105Z,10.04
2017-05-11T00:29:04.220Z,9.97
2017-05-11T00:29:30.328Z,9.99
2017-05-11T00:29:56.429Z,10.02
2017-05-11T00:30:22.557Z,10.09
2017-05-11T00:30:48.697Z,9.99
2017-05-11T00:31:14.788Z,10.1
2017-05-11T00:31:40.916Z,10.2
2017-05-11T00:32:07.042Z,10.2
2017-05-11T00:32:33.226Z,10.3
2017-05-11T00:32:59.314Z,10.25
2017-05-11T00:33:25.433Z,10.19
2017-05-11T00:33:51.617Z,10.16
2017-05-11T00:34:17.738Z,10.09
2017-05-11T00:34:43.852Z,10.1
2017-05-11T00:35:09.984Z,10.05
2017-05-11T00:35:36.081Z,10.04
2017-05-11T00:36:02.192Z,9.99
2017-05-11T00:36:28.317Z,9.95
2017-05-11T00:36:54.413Z,9.94
2017-05-11T00:37:20.535Z,9.86
2017-05-11T00:37:46.626Z,9.91
2017-05-11T00:38:12.743Z,9.82
2017-05-11T00:38:38.902Z,9.84
2017-05-11T00:39:05.024Z,9.8
2017-05-11T00:39:31.162Z,9.84
2017-05-11T00:39:57.318Z,9.8
2017-05-11T00:40:23.416Z,9.84
2017-05-11T00:40:49.507Z,9.86
2017-05-11T00:41:15.607Z,9.79
2017-05-11T00:41:41.738Z,9.8
2017-05-11T00:42:07.824Z,9.87
2017-05-11T00:42:33.947Z,9.83
2017-05-11T00:43:00.092Z,9.82
2017-05-11T00:43:26.195Z,9.69
2017-05-11T00:43:52.321Z,9.76
2017-05-11T00:44:18.434Z,9.73
2017-05-11T00:44:44.563Z,9.77
2017-05-11T00:45:10.693Z,9.74
2017-05-11T00:45:36.779Z,9.72
2017-05-11T00:46:02.928Z,9.76
2017-05-11T00:46:29.031Z,9.77
2017-05-11T00:46:55.121Z,9.77
2017-05-11T00:47:21.238Z,9.74
2017-05-11T00:47:47.369Z,9.74
2017-05-11T00:48:13.460Z,9.73
2017-05-11T00:48:39.646Z,9.73
2017-05-11T00:49:05.756Z,9.69
2017-05-11T00:49:31.902Z,9.74
2017-05-11T00:49:58.006Z,9.62
2017-05-11T00:50:24.121Z,9.64
2017-05-11T00:50:50.214Z,9.69
2017-05-11T00:51:16.350Z,9.66
2017-05-11T00:51:42.439Z,9.65
2017-05-11T00:52:08.577Z,9.66
2017-05-11T00:52:34.683Z,9.58
2017-05-11T00:53:00.805Z,9.61
2017-05-11T00:53:26.915Z,9.59
2017-05-11T00:53:53.073Z,9.56
2017-05-11T00:54:19.191Z,9.58
2017-05-11T00:54:45.350Z,9.55
2017-05-11T00:55:11.497Z,9.64
2017-05-11T00:55:37.609Z,9.55
2017-05-11T00:56:03.739Z,9.55
2017-05-11T00:56:29.834Z,9.51
2017-05-11T00:56:55.922Z,9.55
2017-05-11T00:57:22.053Z,9.58
2017-05-11T00:57:48.235Z,9.54
2017-05-11T00:58:14.373Z,9.59
2017-05-11T00:58:40.476Z,9.47
2017-05-11T00:59:06.610Z,9.55
2017-05-11T00:59:32.750Z,9.56
2017-05-11T00:59:58.875Z,9.51
2017-05-11T01:00:24.987Z,9.51
2017-05-11T01:00:51.090Z,9.58
2017-05-11T01:01:17.241Z,9.51
2017-05-11T01:01:43.471Z,9.56
2017-05-11T01:02:09.571Z,9.61
2017-05-11T01:02:35.731Z,9.55
2017-05-11T01:03:01.865Z,9.5
2017-05-11T01:03:27.963Z,9.56
2017-05-11T01:03:54.120Z,9.55
2017-05-11T01:04:20.238Z,9.48
2017-05-11T01:04:46.380Z,9.5
2017-05-11T01:05:12.519Z,9.48
2017-05-11T01:05:38.645Z,9.5
2017-05-11T01:06:04.777Z,9.43
2017-05-11T01:06:30.905Z,9.44
2017-05-11T01:06:57.027Z,9.44
2017-05-11T01:07:23.132Z,9.43
2017-05-11T01:07:49.269Z,9.48
2017-05-11T01:08:15.390Z,9.41
2017-05-11T01:08:41.523Z,9.44
2017-05-11T01:09:07.696Z,9.44
2017-05-11T01:09:33.805Z,9.39
2017-05-11T01:09:59.914Z,9.44
2017-05-11T01:10:26.009Z,9.39
2017-05-11T01:10:52.097Z,9.4
2017-05-11T01:11:18.199Z,9.43
2017-05-11T01:11:44.327Z,9.34
2017-05-11T01:12:10.439Z,9.31
2017-05-11T01:12:36.568Z,9.34
2017-05-11T01:13:02.729Z,9.34
2017-05-11T01:13:28.863Z,9.36
2017-05-11T01:13:54.987Z,9.36
2017-05-11T01:14:21.173Z,9.37
2017-05-11T01:14:47.403Z,9.34
2017-05-11T01:15:13.499Z,9.32
2017-05-11T01:15:39.636Z,9.36
2017-05-11T01:16:05.727Z,9.34
2017-05-11T01:16:31.855Z,9.34
2017-05-11T01:16:57.966Z,9.22
2017-05-11T01:17:24.079Z,9.32
2017-05-11T01:17:50.293Z,9.19
2017-05-11T01:18:16.409Z,9.29
2017-05-11T01:18:42.526Z,9.18
2017-05-11T01:19:08.684Z,9.22
2017-05-11T01:19:34.881Z,9.23
2017-05-11T01:20:00.968Z,9.16
2017-05-11T01:20:27.076Z,9.08
2017-05-11T01:20:53.173Z,9.13
2017-05-11T01:21:19.307Z,9.11
2017-05-11T01:21:45.412Z,9.13
2017-05-11T01:22:11.528Z,9.19
2017-05-11T01:22:37.660Z,9.18
2017-05-11T01:23:03.778Z,9.18
2017-05-11T01:23:29.940Z,9.14
2017-05-11T01:23:56.047Z,9.13
2017-05-11T01:24:22.318Z,9.19
2017-05-11T01:24:48.430Z,9.16
2017-05-11T01:25:14.588Z,9.19
2017-05-11T01:25:40.687Z,9.18
2017-05-11T01:26:06.799Z,9.19
2017-05-11T01:26:32.900Z,9.14
2017-05-11T01:26:59.007Z,9.18
2017-05-11T01:27:25.097Z,9.1
2017-05-11T01:27:51.247Z,9.16
2017-05-11T01:28:17.384Z,9.06
2017-05-11T01:28:43.568Z,9.03
2017-05-11T01:29:09.694Z,9.14
2017-05-11T01:29:35.808Z,9.08
2017-05-11T01:30:01.933Z,9.08
2017-05-11T01:30:28.064Z,9.04
2017-05-11T01:30:54.175Z,9.03
2017-05-11T01:31:20.323Z,9.06
2017-05-11T01:31:46.461Z,9.08
2017-05-11T01:32:12.545Z,9.04
2017-05-11T01:32:38.664Z,9.06
2017-05-11T01:33:04.815Z,9.02
2017-05-11T01:33:30.940Z,9.06
2017-05-11T01:33:57.045Z,8.94
2017-05-11T01:34:23.179Z,8.99
2017-05-11T01:34:49.308Z,8.89
2017-05-11T01:35:15.468Z,8.95
2017-05-11T01:35:41.555Z,8.92
2017-05-11T01:36:07.652Z,8.99
2017-05-11T01:36:33.784Z,9.02
2017-05-11T01:36:59.877Z,8.92
2017-05-11T01:37:25.992Z,8.92
2017-05-11T01:37:52.157Z,9.02
2017-05-11T01:38:18.312Z,8.99
2017-05-11T01:38:44.430Z,9.03
2017-05-11T01:39:10.543Z,8.97
2017-05-11T01:39:36.687Z,9.02
2017-05-11T01:40:02.843Z,9.02
2017-05-11T01:40:28.937Z,8.97
2017-05-11T01:40:55.050Z,9.02
2017-05-11T01:41:21.186Z,9.03
2017-05-11T01:41:47.282Z,8.99
2017-05-11T01:42:13.371Z,9.02
2017-05-11T01:42:39.502Z,8.97
2017-05-11T01:43:05.628Z,8.97
2017-05-11T01:43:31.720Z,8.99
2017-05-11T01:43:57.843Z,8.99
2017-05-11T01:44:23.955Z,8.92
2017-05-11T01:44:50.065Z,9
2017-05-11T01:45:16.186Z,8.94
2017-05-11T01:45:42.274Z,8.99
2017-05-11T01:46:08.403Z,8.94
2017-05-11T01:46:34.500Z,8.97
2017-05-11T01:47:00.612Z,8.94
2017-05-11T01:47:26.764Z,8.85
2017-05-11T01:47:52.868Z,8.97
2017-05-11T01:48:18.979Z,8.87
2017-05-11T01:48:45.101Z,8.85
2017-05-11T01:49:11.206Z,8.88
2017-05-11T01:49:37.294Z,8.94
2017-05-11T01:50:03.425Z,8.97
2017-05-11T01:50:29.539Z,8.92
2017-05-11T01:50:55.665Z,8.87
2017-05-11T01:51:21.769Z,8.84
2017-05-11T01:51:47.854Z,8.85
2017-05-11T01:52:13.976Z,8.84
2017-05-11T01:52:40.110Z,8.87
2017-05-11T01:53:06.224Z,8.81
2017-05-11T01:53:32.389Z,8.82
2017-05-11T01:53:58.521Z,8.85
2017-05-11T01:54:24.688Z,8.79
2017-05-11T01:54:50.850Z,8.81
2017-05-11T01:55:16.985Z,8.87
2017-05-11T01:55:43.079Z,8.79
2017-05-11T01:56:09.192Z,8.74
2017-05-11T01:56:35.323Z,8.85
2017-05-11T01:57:01.472Z,8.84
2017-05-11T01:57:27.563Z,8.82
2017-05-11T01:57:53.689Z,8.84
2017-05-11T01:58:19.848Z,8.79
2017-05-11T01:58:46.006Z,8.85
2017-05-11T01:59:12.103Z,8.85
2017-05-11T01:59:38.262Z,8.82
2017-05-11T02:00:04.375Z,8.85
2017-05-11T02:00:30.494Z,8.88
2017-05-11T02:00:56.616Z,8.87
2017-05-11T02:01:22.717Z,8.88
2017-05-11T02:01:48.819Z,8.79
2017-05-11T02:02:14.953Z,8.84
2017-05-11T02:02:41.051Z,8.85
2017-05-11T02:03:07.212Z,8.91
2017-05-11T02:03:33.328Z,8.87
2017-05-11T02:03:59.473Z,8.87
2017-05-11T02:04:25.634Z,8.87
2017-05-11T02:04:51.783Z,8.94
2017-05-11T02:05:17.870Z,8.97
2017-05-11T02:05:44.034Z,8.92
2017-05-11T02:06:10.128Z,8.95
2017-05-11T02:06:36.257Z,9.02
2017-05-11T02:07:02.394Z,8.88
2017-05-11T02:07:28.511Z,8.94
2017-05-11T02:07:54.673Z,8.94
2017-05-11T02:08:20.764Z,8.89
2017-05-11T02:08:46.876Z,8.87
2017-05-11T02:09:13.039Z,8.87
2017-05-11T02:09:39.163Z,8.97
2017-05-11T02:10:05.275Z,8.88
2017-05-11T02:10:31.405Z,8.87
2017-05-11T02:10:57.502Z,8.97
2017-05-11T02:11:23.641Z,8.89
2017-05-11T02:11:49.764Z,8.84
2017-05-11T02:12:15.852Z,8.89
2017-05-11T02:12:41.986Z,8.85
2017-05-11T02:13:08.135Z,8.85
2017-05-11T02:13:34.248Z,8.85
2017-05-11T02:14:00.426Z,8.84
2017-05-11T02:14:26.550Z,8.82
2017-05-11T02:14:52.662Z,8.84
2017-05-11T02:15:18.815Z,8.82
2017-05-11T02:15:44.948Z,8.81
2017-05-11T02:16:11.031Z,8.81
2017-05-11T02:16:37.130Z,8.82
2017-05-11T02:17:03.263Z,8.79
2017-05-11T02:17:29.407Z,8.78
2017-05-11T02:17:55.558Z,8.84
2017-05-11T02:18:21.672Z,8.84
2017-05-11T02:18:47.825Z,8.82
2017-05-11T02:19:13.986Z,8.78
2017-05-11T02:19:40.123Z,8.76
2017-05-11T02:20:06.222Z,8.79
2017-05-11T02:20:32.353Z,8.76
2017-05-11T02:20:58.441Z,8.78
2017-05-11T02:21:24.561Z,8.73
2017-05-11T02:21:50.720Z,8.78
2017-05-11T02:22:16.867Z,8.76
2017-05-11T02:22:43.025Z,8.82
2017-05-11T02:23:09.193Z,8.82
2017-05-11T02:23:35.364Z,8.84
2017-05-11T02:24:01.496Z,8.78
2017-05-11T02:24:27.660Z,8.78
2017-05-11T02:24:53.777Z,8.78
2017-05-11T02:25:19.907Z,8.89
2017-05-11T02:25:46.094Z,8.82
2017-05-11T02:26:12.143Z,8.81
2017-05-11T02:26:38.280Z,8.81
2017-05-11T02:27:04.426Z,8.82
2017-05-11T02:27:30.590Z,8.85
2017-05-11T02:27:56.722Z,8.84
2017-05-11T02:28:22.874Z,8.89
2017-05-11T02:28:48.997Z,8.82
2017-05-11T02:29:15.195Z,8.91
2017-05-11T02:29:41.310Z,8.87
2017-05-11T02:30:07.474Z,8.82
2017-05-11T02:30:33.598Z,8.78
2017-05-11T02:30:59.687Z,8.81
2017-05-11T02:31:25.791Z,8.73
2017-05-11T02:31:51.943Z,8.78
2017-05-11T02:32:18.033Z,8.81
2017-05-11T02:32:44.158Z,8.81
2017-05-11T02:33:10.290Z,8.78
2017-05-11T02:33:36.402Z,8.76
2017-05-11T02:34:02.551Z,8.74
2017-05-11T02:34:28.640Z,8.67
2017-05-11T02:34:54.768Z,8.61
2017-05-11T02:35:20.893Z,8.64
2017-05-11T02:35:47.028Z,8.63
2017-05-11T02:36:13.129Z,8.64
2017-05-11T02:36:39.231Z,8.66
2017-05-11T02:37:05.318Z,8.67
2017-05-11T02:37:31.415Z,8.66
2017-05-11T02:37:57.520Z,8.71
2017-05-11T02:38:23.607Z,8.71
2017-05-11T02:38:49.726Z,8.71
2017-05-11T02:39:15.856Z,8.73
2017-05-11T02:39:41.975Z,8.71
2017-05-11T02:40:08.088Z,8.67
2017-05-11T02:40:34.223Z,8.7
2017-05-11T02:41:00.373Z,8.64
2017-05-11T02:41:26.486Z,8.73
2017-05-11T02:41:52.617Z,8.71
2017-05-11T02:42:18.800Z,8.71
2017-05-11T02:42:44.914Z,8.6
2017-05-11T02:43:11.013Z,8.64
2017-05-11T02:43:37.144Z,8.63
2017-05-11T02:44:03.254Z,8.69
2017-05-11T02:44:29.404Z,8.63
2017-05-11T02:44:55.533Z,8.63
2017-05-11T02:45:21.646Z,8.64
2017-05-11T02:45:47.772Z,8.64
2017-05-11T02:46:13.885Z,8.63
2017-05-11T02:46:39.987Z,8.58
2017-05-11T02:47:06.145Z,8.67
2017-05-11T02:47:32.230Z,8.63
2017-05-11T02:47:58.352Z,8.69
2017-05-11T02:48:24.483Z,8.63
2017-05-11T02:48:50.593Z,8.71
2017-05-11T02:49:16.685Z,8.73
2017-05-11T02:49:42.818Z,8.73
2017-05-11T02:50:08.939Z,8.76
2017-05-11T02:50:35.074Z,8.63
2017-05-11T02:51:01.201Z,8.73
2017-05-11T02:51:27.297Z,8.74
2017-05-11T02:51:53.435Z,8.78
2017-05-11T02:52:19.493Z,8.73
2017-05-11T02:52:45.664Z,8.76
2017-05-11T02:53:11.793Z,8.79
2017-05-11T02:53:37.913Z,8.78
2017-05-11T02:54:04.051Z,8.74
2017-05-11T02:54:30.213Z,8.76
2017-05-11T02:54:56.364Z,8.74
2017-05-11T02:55:22.452Z,8.73
2017-05-11T02:55:48.553Z,8.76
2017-05-11T02:56:14.679Z,8.84
2017-05-11T02:56:40.799Z,8.79
2017-05-11T02:57:06.918Z,8.74
2017-05-11T02:57:33.005Z,8.76
2017-05-11T02:57:59.140Z,8.78
2017-05-11T02:58:25.260Z,8.81
2017-05-11T02:58:51.423Z,8.74
2017-05-11T02:59:17.577Z,8.78
2017-05-11T02:59:43.731Z,8.76
2017-05-11T03:00:09.870Z,8.81
2017-05-11T03:00:35.971Z,8.76
2017-05-11T03:01:02.136Z,8.82
2017-05-11T03:01:28.245Z,8.81
2017-05-11T03:01:54.343Z,8.82
2017-05-11T03:02:20.434Z,8.85
2017-05-11T03:02:46.592Z,8.78
2017-05-11T03:03:12.772Z,8.73
2017-05-11T03:03:38.931Z,8.73
2017-05-11T03:04:05.086Z,8.73
2017-05-11T03:04:31.190Z,8.71
2017-05-11T03:04:57.325Z,8.74
2017-05-11T03:05:23.450Z,8.74
2017-05-11T03:05:49.608Z,8.69
2017-05-11T03:06:15.696Z,8.76
2017-05-11T03:06:41.815Z,8.73
2017-05-11T03:07:07.919Z,8.7
2017-05-11T03:07:34.034Z,8.66
2017-05-11T03:08:00.162Z,8.63
2017-05-11T03:08:26.271Z,8.6
2017-05-11T03:08:52.441Z,8.61
2017-05-11T03:09:18.575Z,8.67
2017-05-11T03:09:44.690Z,8.64
2017-05-11T03:10:10.783Z,8.61
2017-05-11T03:10:36.915Z,8.63
2017-05-11T03:11:03.008Z,8.6
2017-05-11T03:11:29.144Z,8.61
2017-05-11T03:11:55.279Z,8.64
2017-05-11T03:12:21.403Z,8.67
2017-05-11T03:12:47.513Z,8.6
2017-05-11T03:13:13.768Z,8.55
2017-05-11T03:13:39.885Z,8.48
2017-05-11T03:14:06.017Z,8.53
2017-05-11T03:14:32.156Z,8.52
2017-05-11T03:14:58.344Z,8.6
2017-05-11T03:15:24.530Z,8.53
2017-05-11T03:15:50.625Z,8.55
2017-05-11T03:16:16.740Z,8.6
2017-05-11T03:16:42.845Z,8.61
2017-05-11T03:17:08.969Z,8.55
2017-05-11T03:17:35.058Z,8.66
2017-05-11T03:18:01.182Z,8.51
2017-05-11T03:18:27.342Z,8.42
2017-05-11T03:18:53.536Z,8.53
2017-05-11T03:19:19.659Z,8.51
2017-05-11T03:19:45.771Z,8.49
2017-05-11T03:20:11.903Z,8.49
2017-05-11T03:20:38.027Z,8.48
2017-05-11T03:21:04.117Z,8.46
2017-05-11T03:21:30.269Z,8.51
2017-05-11T03:21:56.371Z,8.42
2017-05-11T03:22:22.457Z,8.51
2017-05-11T03:22:48.583Z,8.49
2017-05-11T03:23:14.713Z,8.49
2017-05-11T03:23:40.855Z,8.52
2017-05-11T03:24:06.997Z,8.45
2017-05-11T03:24:33.157Z,8.44
2017-05-11T03:24:59.303Z,8.44
2017-05-11T03:25:25.413Z,8.44
2017-05-11T03:25:51.571Z,8.46
2017-05-11T03:26:17.667Z,8.46
2017-05-11T03:26:43.779Z,8.44
2017-05-11T03:27:09.937Z,8.49
2017-05-11T03:27:36.063Z,8.42
2017-05-11T03:28:02.260Z,8.41
2017-05-11T03:28:28.404Z,8.42
2017-05-11T03:28:54.537Z,8.41
2017-05-11T03:29:20.647Z,8.42
2017-05-11T03:29:46.817Z,8.46
2017-05-11T03:30:12.938Z,8.34
2017-05-11T03:30:39.097Z,8.42
2017-05-11T03:31:05.194Z,8.45
2017-05-11T03:31:31.283Z,8.41
2017-05-11T03:31:57.409Z,8.33
2017-05-11T03:32:23.513Z,8.33
2017-05-11T03:32:49.622Z,8.46
2017-05-11T03:33:15.744Z,8.41
2017-05-11T03:33:41.877Z,8.49
2017-05-11T03:34:08.017Z,8.46
2017-05-11T03:34:34.185Z,8.44
2017-05-11T03:35:00.316Z,8.51
2017-05-11T03:35:26.405Z,8.51
2017-05-11T03:35:52.535Z,8.49
2017-05-11T03:36:18.620Z,8.53
2017-05-11T03:36:44.741Z,8.42
2017-05-11T03:37:10.901Z,8.55
2017-05-11T03:37:37.040Z,8.46
2017-05-11T03:38:03.159Z,8.45
2017-05-11T03:38:29.345Z,8.53
2017-05-11T03:38:55.494Z,8.56
2017-05-11T03:39:21.610Z,8.45
2017-05-11T03:39:47.741Z,8.48
2017-05-11T03:40:13.894Z,8.49
2017-05-11T03:40:39.978Z,8.51
2017-05-11T03:41:06.185Z,8.55
2017-05-11T03:41:32.323Z,8.38
2017-05-11T03:41:58.453Z,8.46
2017-05-11T03:42:24.569Z,8.45
2017-05-11T03:42:50.682Z,8.49
2017-05-11T03:43:16.791Z,8.37
2017-05-11T03:43:43.066Z,8.48
2017-05-11T03:44:09.178Z,8.44
2017-05-11T03:44:35.336Z,8.41
2017-05-11T03:45:01.460Z,8.38
2017-05-11T03:45:27.546Z,8.42
2017-05-11T03:45:53.646Z,8.42
2017-05-11T03:46:19.804Z,8.36
2017-05-11T03:46:45.895Z,8.45
2017-05-11T03:47:11.989Z,8.44
2017-05-11T03:47:38.102Z,8.36
2017-05-11T03:48:04.290Z,8.46
2017-05-11T03:48:30.468Z,8.33
2017-05-11T03:48:56.631Z,8.36
2017-05-11T03:49:22.760Z,8.41
2017-05-11T03:49:48.863Z,8.45
2017-05-11T03:50:14.974Z,8.41
2017-05-11T03:50:41.101Z,8.37
2017-05-11T03:51:07.257Z,8.41
2017-05-11T03:51:33.344Z,8.37
2017-05-11T03:51:59.489Z,8.28
2017-05-11T03:52:25.584Z,8.33
2017-05-11T03:52:51.711Z,8.37
2017-05-11T03:53:17.870Z,8.33
2017-05-11T03:53:44.008Z,8.3
2017-05-11T03:54:10.160Z,8.3
2017-05-11T03:54:36.347Z,8.27
2017-05-11T03:55:02.436Z,8.26
2017-05-11T03:55:28.529Z,8.3
2017-05-11T03:55:54.663Z,8.27
2017-05-11T03:56:20.753Z,8.28
2017-05-11T03:56:46.890Z,8.33
2017-05-11T03:57:13.026Z,8.24
2017-05-11T03:57:39.145Z,8.27
2017-05-11T03:58:05.297Z,8.23
2017-05-11T03:58:31.411Z,8.26
2017-05-11T03:58:57.554Z,8.3
2017-05-11T03:59:23.685Z,8.28
2017-05-11T03:59:49.802Z,8.28
2017-05-11T04:00:15.914Z,8.23
2017-05-11T04:00:42.022Z,8.34
2017-05-11T04:01:08.142Z,8.31
2017-05-11T04:01:34.231Z,8.3
2017-05-11T04:02:00.363Z,8.3
2017-05-11T04:02:26.487Z,8.28
2017-05-11T04:02:52.575Z,8.33
2017-05-11T04:03:18.703Z,8.3
2017-05-11T04:03:44.817Z,8.38
2017-05-11T04:04:10.925Z,8.34
2017-05-11T04:04:37.075Z,8.36
2017-05-11T04:05:03.215Z,8.31
2017-05-11T04:05:29.370Z,8.31
2017-05-11T04:05:55.552Z,8.36
2017-05-11T04:06:21.640Z,8.34
2017-05-11T04:06:47.769Z,8.37
2017-05-11T04:07:13.901Z,8.36
2017-05-11T04:07:39.986Z,8.41
2017-05-11T04:08:06.083Z,8.36
2017-05-11T04:08:32.216Z,8.41
2017-05-11T04:08:58.359Z,8.48
2017-05-11T04:09:24.455Z,8.41
2017-05-11T04:09:50.586Z,8.42
2017-05-11T04:10:16.678Z,8.45
2017-05-11T04:10:42.791Z,8.42
2017-05-11T04:11:08.896Z,8.53
2017-05-11T04:11:35.016Z,8.52
2017-05-11T04:12:01.104Z,8.45
2017-05-11T04:12:27.259Z,8.44
2017-05-11T04:12:53.384Z,8.36
2017-05-11T04:13:19.499Z,8.49
2017-05-11T04:13:45.650Z,8.45
2017-05-11T04:14:11.808Z,8.38
2017-05-11T04:14:37.948Z,8.48
2017-05-11T04:15:04.093Z,8.56
2017-05-11T04:15:30.205Z,8.51
2017-05-11T04:15:56.361Z,8.48
2017-05-11T04:16:22.491Z,8.41
2017-05-11T04:16:48.624Z,8.38
2017-05-11T04:17:14.724Z,8.46
2017-05-11T04:17:40.855Z,8.45
2017-05-11T04:18:06.965Z,8.46
2017-05-11T04:18:33.090Z,8.45
2017-05-11T04:18:59.222Z,8.36
2017-05-11T04:19:25.368Z,8.44
2017-05-11T04:19:51.487Z,8.41
2017-05-11T04:20:17.637Z,8.49
2017-05-11T04:20:43.791Z,8.48
2017-05-11T04:21:09.918Z,8.36
2017-05-11T04:21:36.028Z,8.48
2017-05-11T04:22:02.152Z,8.46
2017-05-11T04:22:28.284Z,8.42
2017-05-11T04:22:54.398Z,8.48
2017-05-11T04:23:20.517Z,8.41
2017-05-11T04:23:46.678Z,8.36
2017-05-11T04:24:12.823Z,8.46
2017-05-11T04:24:38.960Z,8.45
2017-05-11T04:25:05.095Z,8.33
2017-05-11T04:25:31.216Z,8.38
2017-05-11T04:25:57.369Z,8.38
2017-05-11T04:26:23.457Z,8.48
2017-05-11T04:26:49.554Z,8.52
2017-05-11T04:27:15.655Z,8.48
2017-05-11T04:27:41.746Z,8.51
2017-05-11T04:28:07.896Z,8.46
2017-05-11T04:28:34.021Z,8.49
2017-05-11T04:29:00.169Z,8.41
2017-05-11T04:29:26.258Z,8.42
2017-05-11T04:29:52.416Z,8.44
2017-05-11T04:30:18.541Z,8.38
2017-05-11T04:30:44.630Z,8.49
2017-05-11T04:31:10.779Z,8.38
2017-05-11T04:31:36.866Z,8.37
2017-05-11T04:32:03.053Z,8.38
2017-05-11T04:32:29.149Z,8.48
2017-05-11T04:32:55.261Z,8.44
2017-05-11T04:33:21.392Z,8.51
2017-05-11T04:33:47.518Z,8.56
2017-05-11T04:34:13.635Z,8.63
2017-05-11T04:34:39.810Z,8.66
2017-05-11T04:35:05.967Z,8.66
2017-05-11T04:35:32.053Z,8.61
2017-05-11T04:35:58.176Z,8.67
2017-05-11T04:36:24.336Z,8.63
2017-05-11T04:36:50.448Z,8.6
2017-05-11T04:37:16.551Z,8.61
2017-05-11T04:37:42.664Z,8.63
2017-05-11T04:38:08.790Z,8.63
2017-05-11T04:38:34.895Z,8.63
2017-05-11T04:39:01.032Z,8.76
2017-05-11T04:39:27.130Z,8.71
2017-05-11T04:39:53.263Z,8.78
2017-05-11T04:40:19.375Z,8.76
2017-05-11T04:40:45.495Z,8.7
2017-05-11T04:41:11.627Z,8.73
2017-05-11T04:41:37.718Z,8.69
2017-05-11T04:42:03.804Z,8.73
2017-05-11T04:42:29.905Z,8.71
2017-05-11T04:42:56.030Z,8.64
2017-05-11T04:43:22.133Z,8.6
2017-05-11T04:43:48.298Z,8.74
2017-05-11T04:44:14.417Z,8.61
2017-05-11T04:44:40.603Z,8.73
2017-05-11T04:45:06.771Z,8.71
2017-05-11T04:45:32.886Z,8.79
2017-05-11T04:45:58.992Z,8.73
2017-05-11T04:46:25.112Z,8.73
2017-05-11T04:46:51.225Z,8.73
2017-05-11T04:47:17.353Z,8.82
2017-05-11T04:47:43.508Z,8.78
2017-05-11T04:48:09.609Z,8.84
2017-05-11T04:48:35.725Z,8.82
2017-05-11T04:49:01.838Z,8.84
2017-05-11T04:49:28.031Z,8.87
2017-05-11T04:49:54.151Z,8.82
2017-05-11T04:50:20.239Z,8.91
2017-05-11T04:50:46.342Z,8.85
2017-05-11T04:51:12.497Z,8.84
2017-05-11T04:51:38.634Z,8.78
2017-05-11T04:52:04.736Z,8.85
2017-05-11T04:52:30.867Z,8.87
2017-05-11T04:52:57.025Z,8.84
2017-05-11T04:53:23.151Z,8.85
2017-05-11T04:53:49.284Z,8.89
2017-05-11T04:54:15.425Z,8.87
2017-05-11T04:54:41.571Z,8.95
2017-05-11T04:55:07.676Z,8.94
2017-05-11T04:55:33.792Z,8.99
2017-05-11T04:55:59.905Z,8.99
2017-05-11T04:56:26.013Z,8.88
2017-05-11T04:56:52.107Z,8.91
2017-05-11T04:57:18.193Z,8.92
2017-05-11T04:57:44.325Z,8.95
2017-05-11T04:58:10.501Z,8.92
2017-05-11T04:58:36.591Z,9.1
2017-05-11T04:59:02.718Z,8.99
2017-05-11T04:59:28.881Z,9.04
2017-05-11T04:59:55.016Z,9
2017-05-11T05:00:21.109Z,9.06
2017-05-11T05:00:47.224Z,9.13
2017-05-11T05:01:13.327Z,9.16
2017-05-11T05:01:39.427Z,9.14
2017-05-11T05:02:05.555Z,9.18
2017-05-11T05:02:31.620Z,9.21
2017-05-11T05:02:57.722Z,9.22
2017-05-11T05:03:23.833Z,9.23
2017-05-11T05:03:49.932Z,9.26
2017-05-11T05:04:16.066Z,9.31
2017-05-11T05:04:42.184Z,9.31
2017-05-11T05:05:08.310Z,9.43
2017-05-11T05:05:34.399Z,9.43
2017-05-11T05:06:00.527Z,9.43
2017-05-11T05:06:26.658Z,9.46
2017-05-11T05:06:52.791Z,9.43
2017-05-11T05:07:18.942Z,9.43
2017-05-11T05:07:45.044Z,9.32
2017-05-11T05:08:11.132Z,9.34
2017-05-11T05:08:37.300Z,9.14
2017-05-11T05:09:03.408Z,9.23
2017-05-11T05:09:29.574Z,9.25
2017-05-11T05:09:55.689Z,9.23
2017-05-11T05:10:21.816Z,9.14
2017-05-11T05:10:47.913Z,9.23
2017-05-11T05:11:14.017Z,9.28
2017-05-11T05:11:40.106Z,9.29
2017-05-11T05:12:06.201Z,9.26
2017-05-11T05:12:32.304Z,9.34
2017-05-11T05:12:58.449Z,9.39
2017-05-11T05:13:24.538Z,9.36
2017-05-11T05:13:50.674Z,9.47
2017-05-11T05:14:16.769Z,9.55
2017-05-11T05:14:42.882Z,9.54
2017-05-11T05:15:08.987Z,9.55
2017-05-11T05:15:35.139Z,9.55
2017-05-11T05:16:01.250Z,9.64
2017-05-11T05:16:27.380Z,9.62
2017-05-11T05:16:53.538Z,9.56
2017-05-11T05:17:19.622Z,9.59
2017-05-11T05:17:45.748Z,9.61
2017-05-11T05:18:11.878Z,9.62
2017-05-11T05:18:37.995Z,9.59
2017-05-11T05:19:04.140Z,9.61
2017-05-11T05:19:30.297Z,9.64
2017-05-11T05:19:56.438Z,9.62
2017-05-11T05:20:22.525Z,9.68
2017-05-11T05:20:48.634Z,9.65
2017-05-11T05:21:14.783Z,9.59
2017-05-11T05:21:40.883Z,9.62
2017-05-11T05:22:06.994Z,9.64
2017-05-11T05:22:33.163Z,9.62
2017-05-11T05:22:59.268Z,9.61
2017-05-11T05:23:25.384Z,9.62
2017-05-11T05:23:51.521Z,9.65
2017-05-11T05:24:17.708Z,9.8
2017-05-11T05:24:43.829Z,9.87
2017-05-11T05:25:09.967Z,9.92
2017-05-11T05:25:36.100Z,9.84
2017-05-11T05:26:02.226Z,9.91
2017-05-11T05:26:28.315Z,9.91
2017-05-11T05:26:54.466Z,9.89
2017-05-11T05:27:20.580Z,10.02
2017-05-11T05:27:46.690Z,9.95
2017-05-11T05:28:12.864Z,10.04
2017-05-11T05:28:38.977Z,10.04
2017-05-11T05:29:05.162Z,10.12
2017-05-11T05:29:31.288Z,10.12
2017-05-11T05:29:57.402Z,10.05
2017-05-11T05:30:23.526Z,10.09
2017-05-11T05:30:49.656Z,10.1
2017-05-11T05:31:15.738Z,10.09
2017-05-11T05:31:41.861Z,10.07
2017-05-11T05:32:07.965Z,10.04
2017-05-11T05:32:34.055Z,9.97
2017-05-11T05:33:00.208Z,10.04
2017-05-11T05:33:26.323Z,10.07
2017-05-11T05:33:52.426Z,10.05
2017-05-11T05:34:18.530Z,9.98
2017-05-11T05:34:44.666Z,9.98
2017-05-11T05:35:10.786Z,9.99
2017-05-11T05:35:36.892Z,9.98
2017-05-11T05:36:02.981Z,10.09
2017-05-11T05:36:29.076Z,10.04
2017-05-11T05:36:55.209Z,10.1
2017-05-11T05:37:21.329Z,9.97
2017-05-11T05:37:47.440Z,10.19
2017-05-11T05:38:13.548Z,10.2
2017-05-11T05:38:39.668Z,10.28
2017-05-11T05:39:05.758Z,10.26
2017-05-11T05:39:31.860Z,10.22
2017-05-11T05:39:58.014Z,10.3
2017-05-11T05:40:24.103Z,10.25
2017-05-11T05:40:50.230Z,10.31
2017-05-11T05:41:16.362Z,10.37
2017-05-11T05:41:42.472Z,10.46
2017-05-11T05:42:08.597Z,10.42
2017-05-11T05:42:34.702Z,10.4
2017-05-11T05:43:00.791Z,10.41
2017-05-11T05:43:26.936Z,10.42
2017-05-11T05:43:53.084Z,10.41
2017-05-11T05:44:19.236Z,10.42
2017-05-11T05:44:45.371Z,10.44
2017-05-11T05:45:11.512Z,10.44
2017-05-11T05:45:37.634Z,10.46
2017-05-11T05:46:03.739Z,10.59
2017-05-11T05:46:29.901Z,10.69
2017-05-11T05:46:56.046Z,10.64